SAS742 EKCH-EYVI
Flight info
| Callsign | SAS742 |
|---|---|
| Flight time | 1h 16m |
| Altitude | 35000 |
| Route | SIMEG L987 ETRUS DCT TESPO DCT VEDEN DCT VAGVO DCT NEDAM DCT OTNAV |
| Aircraft | CRJX/M-SDFGIRWY/S |
Departure
| Time | 2026-04-26 14:30 |
|---|---|
| Airport | Copenhagen Kastrup Airport (EKCH) |
Arrival
| Time | 2026-04-26 15:46 |
|---|---|
| Airport | Vilnius International Airport (EYVI) |
| Time | Latitude | Longitude | Altitude | Speed | Heading |
|---|---|---|---|---|---|
| 2026-04-26 14:04 | 55.62718 | 12.65322 | 15 ft | 0 kts | 17° |
| 2026-04-26 14:18 | 55.62706 | 12.65316 | 15 ft | 3 kts | 16° |
| 2026-04-26 14:18 | 55.62687 | 12.65309 | 15 ft | 3 kts | 5° |
| 2026-04-26 14:18 | 55.62667 | 12.65308 | 15 ft | 3 kts | 357° |
| 2026-04-26 14:18 | 55.62647 | 12.65312 | 15 ft | 3 kts | 348° |
| 2026-04-26 14:19 | 55.62628 | 12.65319 | 15 ft | 3 kts | 356° |
| 2026-04-26 14:19 | 55.62607 | 12.65320 | 15 ft | 3 kts | 359° |
| 2026-04-26 14:19 | 55.62595 | 12.65320 | 15 ft | 0 kts | 359° |
| 2026-04-26 14:22 | 55.62604 | 12.65319 | 18 ft | 4 kts | 356° |
| 2026-04-26 14:22 | 55.62640 | 12.65288 | 15 ft | 6 kts | 306° |
| 2026-04-26 14:22 | 55.62640 | 12.65225 | 15 ft | 5 kts | 237° |
| 2026-04-26 14:23 | 55.62604 | 12.65199 | 15 ft | 9 kts | 185° |
| 2026-04-26 14:23 | 55.62514 | 12.65200 | 15 ft | 14 kts | 178° |
| 2026-04-26 14:23 | 55.62411 | 12.65206 | 15 ft | 15 kts | 180° |
| 2026-04-26 14:23 | 55.62305 | 12.65202 | 17 ft | 16 kts | 184° |
| 2026-04-26 14:24 | 55.62198 | 12.65170 | 15 ft | 16 kts | 208° |
| 2026-04-26 14:24 | 55.62138 | 12.65102 | 16 ft | 0 kts | 213° |
| 2026-04-26 14:25 | 55.62112 | 12.65071 | 16 ft | 11 kts | 213° |
| 2026-04-26 14:25 | 55.62024 | 12.64968 | 17 ft | 16 kts | 213° |
| 2026-04-26 14:25 | 55.61924 | 12.64854 | 15 ft | 17 kts | 212° |
| 2026-04-26 14:25 | 55.61821 | 12.64737 | 17 ft | 18 kts | 212° |
| 2026-04-26 14:26 | 55.61718 | 12.64619 | 15 ft | 18 kts | 213° |
| 2026-04-26 14:26 | 55.61613 | 12.64496 | 15 ft | 18 kts | 212° |
| 2026-04-26 14:26 | 55.61506 | 12.64373 | 15 ft | 18 kts | 213° |
| 2026-04-26 14:26 | 55.61397 | 12.64248 | 15 ft | 19 kts | 213° |
| 2026-04-26 14:27 | 55.61285 | 12.64121 | 16 ft | 19 kts | 213° |
| 2026-04-26 14:27 | 55.61172 | 12.63990 | 17 ft | 20 kts | 213° |
| 2026-04-26 14:27 | 55.61057 | 12.63859 | 15 ft | 20 kts | 213° |
| 2026-04-26 14:27 | 55.60943 | 12.63727 | 15 ft | 20 kts | 213° |
| 2026-04-26 14:28 | 55.60827 | 12.63591 | 16 ft | 20 kts | 213° |
| 2026-04-26 14:28 | 55.60709 | 12.63454 | 16 ft | 20 kts | 213° |
| 2026-04-26 14:28 | 55.60598 | 12.63306 | 16 ft | 18 kts | 220° |
| 2026-04-26 14:28 | 55.60497 | 12.63225 | 17 ft | 16 kts | 166° |
| 2026-04-26 14:29 | 55.60420 | 12.63361 | 16 ft | 16 kts | 121° |
| 2026-04-26 14:29 | 55.60432 | 12.63489 | 15 ft | 11 kts | 49° |
| 2026-04-26 14:29 | 55.60454 | 12.63526 | 16 ft | 23 kts | 40° |
| 2026-04-26 14:29 | 55.60799 | 12.64058 | 18 ft | 106 kts | 41° |
| 2026-04-26 14:30 | 55.61524 | 12.65189 | 26 ft | 168 kts | 40° |
| 2026-04-26 14:30 | 55.62439 | 12.66775 | 439 ft | 197 kts | 41° |
| 2026-04-26 14:30 | 55.63400 | 12.68433 | 1570 ft | 186 kts | 37° |
| 2026-04-26 14:30 | 55.64395 | 12.69860 | 2511 ft | 187 kts | 34° |
| 2026-04-26 14:31 | 55.65443 | 12.71309 | 3315 ft | 199 kts | 34° |
| 2026-04-26 14:31 | 55.66537 | 12.72845 | 4316 ft | 202 kts | 34° |
| 2026-04-26 14:31 | 55.67629 | 12.74440 | 5298 ft | 205 kts | 35° |
| 2026-04-26 14:31 | 55.68731 | 12.76069 | 6251 ft | 208 kts | 35° |
| 2026-04-26 14:32 | 55.69843 | 12.77730 | 7156 ft | 210 kts | 35° |
| 2026-04-26 14:32 | 55.70958 | 12.79406 | 8072 ft | 211 kts | 34° |
| 2026-04-26 14:32 | 55.71904 | 12.81445 | 8916 ft | 225 kts | 65° |
| 2026-04-26 14:32 | 55.71931 | 12.84280 | 9773 ft | 243 kts | 105° |
| 2026-04-26 14:33 | 55.70966 | 12.86725 | 10521 ft | 254 kts | 143° |
| 2026-04-26 14:33 | 55.69364 | 12.88001 | 11250 ft | 254 kts | 168° |
| 2026-04-26 14:33 | 55.67643 | 12.88773 | 11985 ft | 257 kts | 170° |
| 2026-04-26 14:33 | 55.65894 | 12.89590 | 12726 ft | 262 kts | 168° |
| 2026-04-26 14:34 | 55.64140 | 12.90563 | 13452 ft | 267 kts | 164° |
| 2026-04-26 14:34 | 55.62380 | 12.91690 | 14164 ft | 271 kts | 163° |
| 2026-04-26 14:34 | 55.60562 | 12.92341 | 14771 ft | 263 kts | 193° |
| 2026-04-26 14:34 | 55.58936 | 12.91245 | 15381 ft | 243 kts | 230° |
| 2026-04-26 14:35 | 55.57787 | 12.89131 | 16023 ft | 237 kts | 239° |
| 2026-04-26 14:35 | 55.56717 | 12.86895 | 16641 ft | 239 kts | 239° |
| 2026-04-26 14:35 | 55.55627 | 12.84654 | 17251 ft | 242 kts | 238° |
| 2026-04-26 14:35 | 55.54489 | 12.82438 | 17874 ft | 245 kts | 237° |
| 2026-04-26 14:36 | 55.53298 | 12.80264 | 18466 ft | 248 kts | 236° |
| 2026-04-26 14:36 | 55.52035 | 12.78188 | 18916 ft | 262 kts | 224° |
| 2026-04-26 14:36 | 55.50173 | 12.77032 | 18901 ft | 310 kts | 190° |
| 2026-04-26 14:36 | 55.47925 | 12.77419 | 19044 ft | 337 kts | 174° |
| 2026-04-26 14:37 | 55.45563 | 12.78272 | 19269 ft | 353 kts | 173° |
| 2026-04-26 14:37 | 55.43137 | 12.79379 | 19557 ft | 370 kts | 158° |
| 2026-04-26 14:37 | 55.41043 | 12.82050 | 20058 ft | 378 kts | 131° |
| 2026-04-26 14:37 | 55.39596 | 12.85923 | 20574 ft | 381 kts | 115° |
| 2026-04-26 14:38 | 55.38484 | 12.90171 | 21054 ft | 383 kts | 109° |
| 2026-04-26 14:38 | 55.37551 | 12.94583 | 21555 ft | 386 kts | 106° |
| 2026-04-26 14:38 | 55.36658 | 12.99054 | 22052 ft | 389 kts | 106° |
| 2026-04-26 14:38 | 55.36053 | 13.02017 | 22375 ft | 391 kts | 107° |
| 2026-04-26 14:39 | 55.34730 | 13.08014 | 23016 ft | 396 kts | 109° |
| 2026-04-26 14:39 | 55.33695 | 13.12508 | 23463 ft | 398 kts | 109° |
| 2026-04-26 14:39 | 55.32673 | 13.16980 | 23906 ft | 401 kts | 109° |
| 2026-04-26 14:39 | 55.31631 | 13.21549 | 24286 ft | 404 kts | 110° |
| 2026-04-26 14:40 | 55.30582 | 13.26141 | 24666 ft | 406 kts | 110° |
| 2026-04-26 14:40 | 55.29526 | 13.30749 | 25037 ft | 408 kts | 110° |
| 2026-04-26 14:40 | 55.28459 | 13.35397 | 25415 ft | 411 kts | 110° |
| 2026-04-26 14:40 | 55.27381 | 13.40082 | 25686 ft | 416 kts | 109° |
| 2026-04-26 14:41 | 55.26299 | 13.44799 | 26027 ft | 418 kts | 109° |
| 2026-04-26 14:41 | 55.25509 | 13.49677 | 26325 ft | 414 kts | 92° |
| 2026-04-26 14:41 | 55.25488 | 13.54679 | 26665 ft | 409 kts | 79° |
| 2026-04-26 14:41 | 55.25908 | 13.59578 | 26987 ft | 406 kts | 71° |
| 2026-04-26 14:42 | 55.26543 | 13.64409 | 27302 ft | 406 kts | 70° |
| 2026-04-26 14:42 | 55.27200 | 13.69178 | 27606 ft | 409 kts | 70° |
| 2026-04-26 14:42 | 55.27813 | 13.74073 | 27911 ft | 412 kts | 72° |
| 2026-04-26 14:42 | 55.28367 | 13.79025 | 28209 ft | 415 kts | 73° |
| 2026-04-26 14:43 | 55.28913 | 13.84019 | 28497 ft | 417 kts | 73° |
| 2026-04-26 14:43 | 55.29465 | 13.89024 | 28785 ft | 419 kts | 73° |
| 2026-04-26 14:43 | 55.30018 | 13.94060 | 29103 ft | 421 kts | 72° |
| 2026-04-26 14:43 | 55.30569 | 13.99111 | 29361 ft | 423 kts | 72° |
| 2026-04-26 14:44 | 55.31134 | 14.04199 | 29640 ft | 425 kts | 72° |
| 2026-04-26 14:44 | 55.31694 | 14.09305 | 29896 ft | 426 kts | 72° |
| 2026-04-26 14:44 | 55.32249 | 14.14421 | 30148 ft | 428 kts | 72° |
| 2026-04-26 14:44 | 55.32806 | 14.19579 | 30387 ft | 430 kts | 72° |
| 2026-04-26 14:45 | 55.33363 | 14.24750 | 30591 ft | 432 kts | 73° |
| 2026-04-26 14:45 | 55.33733 | 14.28185 | 30728 ft | 433 kts | 73° |
| 2026-04-26 14:45 | 55.34477 | 14.35153 | 30995 ft | 435 kts | 73° |
| 2026-04-26 14:45 | 55.35032 | 14.40380 | 31183 ft | 436 kts | 73° |
| 2026-04-26 14:46 | 55.35587 | 14.45635 | 31382 ft | 438 kts | 73° |
| 2026-04-26 14:46 | 55.36142 | 14.50899 | 31556 ft | 439 kts | 73° |
| 2026-04-26 14:46 | 55.36695 | 14.56185 | 31765 ft | 441 kts | 73° |
| 2026-04-26 14:46 | 55.37245 | 14.61493 | 31963 ft | 441 kts | 72° |
| 2026-04-26 14:47 | 55.37795 | 14.66723 | 32213 ft | 441 kts | 72° |
| 2026-04-26 14:47 | 55.38348 | 14.72027 | 32453 ft | 440 kts | 73° |
| 2026-04-26 14:47 | 55.38894 | 14.77325 | 32688 ft | 440 kts | 73° |
| 2026-04-26 14:47 | 55.39440 | 14.82622 | 32911 ft | 440 kts | 73° |
| 2026-04-26 14:48 | 55.39982 | 14.87926 | 33186 ft | 440 kts | 73° |
| 2026-04-26 14:48 | 55.40517 | 14.93222 | 33436 ft | 439 kts | 73° |
| 2026-04-26 14:48 | 55.41057 | 14.98510 | 33646 ft | 439 kts | 73° |
| 2026-04-26 14:48 | 55.41591 | 15.03797 | 33851 ft | 439 kts | 73° |
| 2026-04-26 14:49 | 55.42090 | 15.09090 | 34063 ft | 439 kts | 73° |
| 2026-04-26 14:49 | 55.42583 | 15.14400 | 34295 ft | 439 kts | 73° |
| 2026-04-26 14:49 | 55.43081 | 15.19692 | 34490 ft | 437 kts | 73° |
| 2026-04-26 14:49 | 55.43604 | 15.24977 | 34667 ft | 437 kts | 73° |
| 2026-04-26 14:50 | 55.44114 | 15.30174 | 34840 ft | 437 kts | 73° |
| 2026-04-26 14:50 | 55.44630 | 15.35443 | 35015 ft | 436 kts | 73° |
| 2026-04-26 14:50 | 55.45146 | 15.40721 | 35141 ft | 437 kts | 73° |
| 2026-04-26 14:51 | 55.46178 | 15.51358 | 35231 ft | 444 kts | 73° |
| 2026-04-26 14:51 | 55.48050 | 15.61529 | 35258 ft | 429 kts | 50° |
| 2026-04-26 14:52 | 55.51452 | 15.70151 | 35263 ft | 429 kts | 44° |
| 2026-04-26 14:52 | 55.55369 | 15.78103 | 35260 ft | 428 kts | 36° |
| 2026-04-26 14:53 | 55.59645 | 15.85446 | 35274 ft | 435 kts | 35° |
| 2026-04-26 14:53 | 55.63959 | 15.93127 | 35248 ft | 443 kts | 36° |
| 2026-04-26 14:54 | 55.68302 | 16.00981 | 35244 ft | 449 kts | 37° |
| 2026-04-26 14:54 | 55.72691 | 16.08941 | 35234 ft | 454 kts | 37° |
| 2026-04-26 14:55 | 55.77124 | 16.17011 | 35233 ft | 458 kts | 37° |
| 2026-04-26 14:55 | 55.81585 | 16.25173 | 35230 ft | 462 kts | 37° |
| 2026-04-26 14:56 | 55.86043 | 16.33341 | 35223 ft | 464 kts | 37° |
| 2026-04-26 14:56 | 55.90545 | 16.41621 | 35215 ft | 465 kts | 37° |
| 2026-04-26 14:57 | 55.95046 | 16.49939 | 35209 ft | 466 kts | 37° |
| 2026-04-26 14:57 | 55.99558 | 16.58295 | 35246 ft | 467 kts | 37° |
| 2026-04-26 14:58 | 56.04076 | 16.66701 | 35208 ft | 469 kts | 38° |
| 2026-04-26 14:58 | 56.08592 | 16.75125 | 35201 ft | 469 kts | 38° |
| 2026-04-26 14:59 | 56.13078 | 16.83526 | 35192 ft | 469 kts | 38° |
| 2026-04-26 14:59 | 56.17584 | 16.92005 | 35195 ft | 467 kts | 38° |
| 2026-04-26 15:00 | 56.22024 | 17.00382 | 35226 ft | 459 kts | 37° |
| 2026-04-26 15:00 | 56.24080 | 17.04844 | 35198 ft | 469 kts | 48° |
| 2026-04-26 15:00 | 56.25615 | 17.10081 | 35200 ft | 478 kts | 58° |
| 2026-04-26 15:01 | 56.27743 | 17.21486 | 35198 ft | 489 kts | 72° |
| 2026-04-26 15:01 | 56.27995 | 17.27647 | 35197 ft | 500 kts | 85° |
| 2026-04-26 15:01 | 56.27698 | 17.33908 | 35204 ft | 502 kts | 90° |
| 2026-04-26 15:02 | 56.27179 | 17.46326 | 35222 ft | 498 kts | 84° |
| 2026-04-26 15:02 | 56.27221 | 17.58741 | 35198 ft | 496 kts | 82° |
| 2026-04-26 15:03 | 56.27211 | 17.69164 | 35195 ft | 498 kts | 83° |
| 2026-04-26 15:03 | 56.27120 | 17.81549 | 35193 ft | 498 kts | 83° |
| 2026-04-26 15:04 | 56.27014 | 17.94010 | 35192 ft | 498 kts | 83° |
| 2026-04-26 15:04 | 56.26895 | 18.06492 | 35217 ft | 499 kts | 83° |
| 2026-04-26 15:05 | 56.26766 | 18.18967 | 35195 ft | 499 kts | 83° |
| 2026-04-26 15:05 | 56.26622 | 18.31465 | 35191 ft | 499 kts | 83° |
| 2026-04-26 15:06 | 56.26467 | 18.43873 | 35188 ft | 499 kts | 83° |
| 2026-04-26 15:06 | 56.26297 | 18.56359 | 35207 ft | 500 kts | 83° |
| 2026-04-26 15:07 | 56.26023 | 18.75136 | 35188 ft | 501 kts | 83° |
| 2026-04-26 15:07 | 56.25823 | 18.87682 | 35186 ft | 501 kts | 83° |
| 2026-04-26 15:08 | 56.25609 | 19.00218 | 35179 ft | 502 kts | 83° |
| 2026-04-26 15:08 | 56.25385 | 19.12768 | 35178 ft | 502 kts | 84° |
| 2026-04-26 15:09 | 56.25065 | 19.25327 | 35205 ft | 509 kts | 91° |
| 2026-04-26 15:09 | 56.23111 | 19.37675 | 35180 ft | 524 kts | 107° |
| 2026-04-26 15:10 | 56.20588 | 19.47706 | 35175 ft | 526 kts | 109° |
| 2026-04-26 15:10 | 56.17185 | 19.61679 | 35166 ft | 524 kts | 107° |
| 2026-04-26 15:11 | 56.14337 | 19.73722 | 35163 ft | 525 kts | 108° |
| 2026-04-26 15:11 | 56.11455 | 19.85765 | 35167 ft | 525 kts | 108° |
| 2026-04-26 15:12 | 56.08563 | 19.97795 | 35155 ft | 525 kts | 108° |
| 2026-04-26 15:12 | 56.05686 | 20.09732 | 35164 ft | 525 kts | 108° |
| 2026-04-26 15:13 | 56.02775 | 20.21722 | 35153 ft | 525 kts | 108° |
| 2026-04-26 15:13 | 55.99855 | 20.33681 | 35173 ft | 525 kts | 108° |
| 2026-04-26 15:14 | 55.96919 | 20.45639 | 35151 ft | 525 kts | 108° |
| 2026-04-26 15:14 | 55.93973 | 20.57570 | 35145 ft | 525 kts | 108° |
| 2026-04-26 15:15 | 55.91021 | 20.69474 | 35136 ft | 524 kts | 108° |
| 2026-04-26 15:15 | 55.88072 | 20.81298 | 35145 ft | 524 kts | 108° |
| 2026-04-26 15:16 | 55.85106 | 20.93162 | 35125 ft | 524 kts | 108° |
| 2026-04-26 15:16 | 55.82098 | 21.05071 | 35127 ft | 524 kts | 108° |
| 2026-04-26 15:17 | 55.79610 | 21.14894 | 35131 ft | 524 kts | 109° |
| 2026-04-26 15:17 | 55.76111 | 21.28628 | 35157 ft | 525 kts | 109° |
| 2026-04-26 15:18 | 55.73088 | 21.40426 | 35118 ft | 525 kts | 109° |
| 2026-04-26 15:18 | 55.70055 | 21.52207 | 35109 ft | 525 kts | 109° |
| 2026-04-26 15:19 | 55.67010 | 21.63970 | 35099 ft | 525 kts | 109° |
| 2026-04-26 15:19 | 55.63955 | 21.75718 | 35127 ft | 525 kts | 109° |
| 2026-04-26 15:20 | 55.60885 | 21.87453 | 35089 ft | 526 kts | 109° |
| 2026-04-26 15:20 | 55.57819 | 21.99114 | 35074 ft | 526 kts | 109° |
| 2026-04-26 15:21 | 55.54724 | 22.10829 | 35071 ft | 526 kts | 109° |
| 2026-04-26 15:21 | 55.51617 | 22.22519 | 35055 ft | 526 kts | 109° |
| 2026-04-26 15:22 | 55.48497 | 22.34209 | 35043 ft | 526 kts | 110° |
| 2026-04-26 15:22 | 55.45364 | 22.45874 | 35042 ft | 526 kts | 110° |
| 2026-04-26 15:23 | 55.43796 | 22.51695 | 34929 ft | 528 kts | 110° |
| 2026-04-26 15:23 | 55.42225 | 22.57514 | 34470 ft | 523 kts | 109° |
| 2026-04-26 15:23 | 55.40691 | 22.63197 | 33999 ft | 518 kts | 109° |
| 2026-04-26 15:23 | 55.39151 | 22.68894 | 33444 ft | 514 kts | 109° |
| 2026-04-26 15:24 | 55.37617 | 22.74538 | 32945 ft | 510 kts | 108° |
| 2026-04-26 15:24 | 55.36095 | 22.80152 | 32406 ft | 507 kts | 108° |
| 2026-04-26 15:24 | 55.34575 | 22.85733 | 31904 ft | 507 kts | 108° |
| 2026-04-26 15:24 | 55.33041 | 22.91342 | 31391 ft | 510 kts | 108° |
| 2026-04-26 15:25 | 55.31495 | 22.96981 | 30892 ft | 513 kts | 107° |
| 2026-04-26 15:25 | 55.30466 | 23.00730 | 30573 ft | 515 kts | 107° |
| 2026-04-26 15:25 | 55.28378 | 23.08316 | 29912 ft | 518 kts | 107° |
| 2026-04-26 15:25 | 55.26803 | 23.14014 | 29351 ft | 519 kts | 107° |
| 2026-04-26 15:26 | 55.25222 | 23.19703 | 28787 ft | 518 kts | 107° |
| 2026-04-26 15:26 | 55.23650 | 23.25359 | 28299 ft | 514 kts | 106° |
| 2026-04-26 15:26 | 55.22089 | 23.30976 | 27675 ft | 511 kts | 107° |
| 2026-04-26 15:26 | 55.20544 | 23.36497 | 27069 ft | 508 kts | 107° |
| 2026-04-26 15:27 | 55.18993 | 23.42044 | 26472 ft | 504 kts | 107° |
| 2026-04-26 15:27 | 55.17448 | 23.47538 | 25888 ft | 502 kts | 107° |
| 2026-04-26 15:27 | 55.15806 | 23.52942 | 25309 ft | 502 kts | 109° |
| 2026-04-26 15:27 | 55.14152 | 23.58301 | 24754 ft | 498 kts | 108° |
| 2026-04-26 15:28 | 55.12722 | 23.63742 | 24203 ft | 487 kts | 102° |
| 2026-04-26 15:28 | 55.11398 | 23.69169 | 23734 ft | 484 kts | 103° |
| 2026-04-26 15:28 | 55.09977 | 23.74491 | 23120 ft | 483 kts | 106° |
| 2026-04-26 15:28 | 55.08478 | 23.79720 | 22477 ft | 480 kts | 108° |
| 2026-04-26 15:29 | 55.06975 | 23.84885 | 21857 ft | 474 kts | 108° |
| 2026-04-26 15:29 | 55.05501 | 23.90001 | 21249 ft | 469 kts | 108° |
| 2026-04-26 15:29 | 55.02599 | 23.99986 | 20070 ft | 460 kts | 110° |
| 2026-04-26 15:30 | 54.99748 | 24.09825 | 18925 ft | 450 kts | 110° |
| 2026-04-26 15:30 | 54.98342 | 24.14660 | 18370 ft | 444 kts | 111° |
| 2026-04-26 15:30 | 54.96968 | 24.19435 | 17773 ft | 438 kts | 112° |
| 2026-04-26 15:31 | 54.95644 | 24.24149 | 17122 ft | 428 kts | 107° |
| 2026-04-26 15:31 | 54.94614 | 24.34021 | 15862 ft | 407 kts | 89° |
| 2026-04-26 15:31 | 54.94402 | 24.38918 | 15228 ft | 403 kts | 89° |
| 2026-04-26 15:32 | 54.93994 | 24.46816 | 14232 ft | 382 kts | 91° |
| 2026-04-26 15:32 | 54.93614 | 24.52774 | 13401 ft | 365 kts | 92° |
| 2026-04-26 15:32 | 54.93335 | 24.57041 | 12765 ft | 345 kts | 91° |
| 2026-04-26 15:33 | 54.93076 | 24.61095 | 12198 ft | 329 kts | 91° |
| 2026-04-26 15:33 | 54.92830 | 24.64980 | 11629 ft | 317 kts | 91° |
| 2026-04-26 15:33 | 54.92417 | 24.68696 | 11066 ft | 315 kts | 108° |
| 2026-04-26 15:33 | 54.91398 | 24.72046 | 10549 ft | 312 kts | 118° |
| 2026-04-26 15:34 | 54.90241 | 24.75194 | 10038 ft | 306 kts | 120° |
| 2026-04-26 15:34 | 54.89089 | 24.78279 | 9494 ft | 302 kts | 119° |
| 2026-04-26 15:34 | 54.87970 | 24.81327 | 8938 ft | 297 kts | 118° |
| 2026-04-26 15:34 | 54.86903 | 24.84366 | 8387 ft | 292 kts | 116° |
| 2026-04-26 15:35 | 54.85898 | 24.87350 | 7852 ft | 288 kts | 116° |
| 2026-04-26 15:35 | 54.84886 | 24.90331 | 7312 ft | 285 kts | 116° |
| 2026-04-26 15:35 | 54.83743 | 24.93106 | 6768 ft | 286 kts | 136° |
| 2026-04-26 15:35 | 54.82005 | 24.94683 | 6235 ft | 282 kts | 171° |
| 2026-04-26 15:36 | 54.80105 | 24.94607 | 5693 ft | 269 kts | 197° |
| 2026-04-26 15:36 | 54.78259 | 24.94028 | 5258 ft | 269 kts | 194° |
| 2026-04-26 15:36 | 54.76416 | 24.93773 | 5086 ft | 265 kts | 186° |
| 2026-04-26 15:36 | 54.74569 | 24.93816 | 5023 ft | 264 kts | 182° |
| 2026-04-26 15:37 | 54.72748 | 24.93950 | 4992 ft | 262 kts | 182° |
| 2026-04-26 15:37 | 54.70932 | 24.94087 | 4981 ft | 261 kts | 182° |
| 2026-04-26 15:37 | 54.69091 | 24.94193 | 4978 ft | 269 kts | 183° |
| 2026-04-26 15:37 | 54.67197 | 24.94257 | 4985 ft | 274 kts | 183° |
| 2026-04-26 15:38 | 54.65269 | 24.94322 | 4988 ft | 279 kts | 184° |
| 2026-04-26 15:38 | 54.63381 | 24.94390 | 4982 ft | 258 kts | 184° |
| 2026-04-26 15:38 | 54.61661 | 24.94441 | 5031 ft | 248 kts | 184° |
| 2026-04-26 15:38 | 54.59933 | 24.94495 | 4756 ft | 248 kts | 184° |
| 2026-04-26 15:39 | 54.58223 | 24.94858 | 4316 ft | 252 kts | 162° |
| 2026-04-26 15:39 | 54.56681 | 24.96316 | 3945 ft | 252 kts | 146° |
| 2026-04-26 15:39 | 54.55248 | 24.98031 | 3555 ft | 247 kts | 144° |
| 2026-04-26 15:39 | 54.54329 | 24.99141 | 3340 ft | 239 kts | 144° |
| 2026-04-26 15:40 | 54.52628 | 25.01130 | 2936 ft | 210 kts | 147° |
| 2026-04-26 15:40 | 54.51419 | 25.02429 | 2766 ft | 204 kts | 149° |
| 2026-04-26 15:40 | 54.50223 | 25.03672 | 2694 ft | 198 kts | 150° |
| 2026-04-26 15:40 | 54.49043 | 25.04908 | 2672 ft | 198 kts | 150° |
| 2026-04-26 15:41 | 54.47978 | 25.06386 | 2611 ft | 198 kts | 122° |
| 2026-04-26 15:41 | 54.47462 | 25.08506 | 2637 ft | 190 kts | 103° |
| 2026-04-26 15:41 | 54.47106 | 25.10663 | 2629 ft | 183 kts | 86° |
| 2026-04-26 15:41 | 54.47312 | 25.12773 | 2651 ft | 180 kts | 66° |
| 2026-04-26 15:42 | 54.47630 | 25.14850 | 2679 ft | 181 kts | 59° |
| 2026-04-26 15:42 | 54.48305 | 25.16573 | 2680 ft | 173 kts | 40° |
| 2026-04-26 15:42 | 54.49047 | 25.18217 | 2687 ft | 174 kts | 40° |
| 2026-04-26 15:42 | 54.49982 | 25.19323 | 2671 ft | 158 kts | 8° |
| 2026-04-26 15:43 | 54.51022 | 25.19992 | 2676 ft | 161 kts | 13° |
| 2026-04-26 15:43 | 54.52054 | 25.20738 | 2680 ft | 162 kts | 13° |
| 2026-04-26 15:43 | 54.54153 | 25.22200 | 2460 ft | 162 kts | 12° |
| 2026-04-26 15:44 | 54.55215 | 25.22919 | 2201 ft | 164 kts | 12° |
| 2026-04-26 15:44 | 54.57207 | 25.24310 | 1750 ft | 146 kts | 11° |
| 2026-04-26 15:44 | 54.58146 | 25.24950 | 1542 ft | 143 kts | 12° |
| 2026-04-26 15:45 | 54.59783 | 25.26130 | 1169 ft | 128 kts | 15° |
| 2026-04-26 15:45 | 54.60652 | 25.26692 | 1006 ft | 138 kts | 14° |
| 2026-04-26 15:46 | 54.62415 | 25.27886 | 658 ft | 131 kts | 13° |
| 2026-04-26 15:46 | 54.63195 | 25.28419 | 618 ft | 103 kts | 10° |
| 2026-04-26 15:46 | 54.63670 | 25.28728 | 635 ft | 40 kts | 20° |
| 2026-04-26 15:46 | 54.63761 | 25.28748 | 632 ft | 39 kts | 351° |
| 2026-04-26 15:47 | 54.64030 | 25.28687 | 638 ft | 6 kts | 354° |
| 2026-04-26 15:47 | 54.64064 | 25.28680 | 636 ft | 1 kts | 353° |
| 2026-04-26 15:47 | 54.64096 | 25.28665 | 641 ft | 8 kts | 325° |
| 2026-04-26 15:48 | 54.64119 | 25.28583 | 637 ft | 8 kts | 273° |
| 2026-04-26 15:48 | 54.64120 | 25.28480 | 636 ft | 9 kts | 269° |
| 2026-04-26 15:48 | 54.64124 | 25.28368 | 638 ft | 9 kts | 285° |
| 2026-04-26 15:48 | 54.64163 | 25.28329 | 636 ft | 6 kts | 359° |
| 2026-04-26 15:49 | 54.64199 | 25.28350 | 641 ft | 5 kts | 43° |
| 2026-04-26 15:49 | 54.64204 | 25.28390 | 639 ft | 2 kts | 113° |
| 2026-04-26 15:49 | 54.64190 | 25.28408 | 642 ft | 5 kts | 160° |
| 2026-04-26 15:49 | 54.64165 | 25.28412 | 637 ft | 0 kts | 181° |